.
WxDataArchive / Data Records for 2015-12-14
2015-12-13 December 2015 2015-12-15

Data Records for Monday, 14 December 2015

Time	Temp	Chill	HIndex	Humid	Dewpt	 Wind 	HiWind	WindDir	Rain 	Barom
-----	----	-----	------	-----	-----	------	------	-------	-----	-----
00:00	61.2	61.2	61.2	70	51.3	2	5	112	0.00	29.624 
00:05	61.2	61.2	61.2	70	51.3	2	6	112	0.00	29.624 
00:10	61.0	61.0	61.0	70	51.1	2	7	135	0.00	29.624 
00:15	61.0	61.0	61.0	70	51.1	2	6	112	0.00	29.604 
00:20	61.0	61.0	61.0	70	51.1	2	6	112	0.00	29.604 
00:25	61.0	61.0	61.0	70	51.1	2	7	90	0.00	29.604 
00:30	61.0	61.0	61.0	70	51.1	2	7	90	0.00	29.603 
00:35	60.9	60.9	60.9	70	51.0	3	6	135	0.00	29.603 
00:40	61.0	61.0	61.0	70	51.1	3	10	90	0.00	29.603 
00:45	61.0	61.0	61.0	69	50.8	2	7	112	0.00	29.593 
00:50	61.3	61.3	61.3	68	50.6	4	10	90	0.00	29.593 
00:55	61.5	61.5	61.5	68	50.8	2	7	90	0.00	29.593 
01:00	61.5	61.5	61.5	68	50.8	2	6	112	0.00	29.592 
01:05	61.5	61.5	61.5	68	50.8	3	6	90	0.00	29.592 
01:10	61.5	61.5	61.5	67	50.4	3	10	112	0.00	29.592 
01:15	61.5	61.5	61.5	67	50.4	3	6	90	0.00	29.577 
01:20	61.3	61.3	61.3	67	50.2	3	7	90	0.00	29.577 
01:25	61.3	61.3	61.3	67	50.2	2	6	90	0.00	29.577 
01:30	61.3	61.3	61.3	66	49.8	3	7	90	0.00	29.575 
01:35	61.3	61.3	61.3	66	49.8	2	6	90	0.00	29.575 
01:40	61.3	61.3	61.3	66	49.8	3	6	90	0.00	29.575 
01:45	61.3	61.3	61.3	66	49.8	2	5	112	0.00	29.549 
01:50	61.3	61.3	61.3	66	49.8	2	9	135	0.00	29.549 
01:55	61.2	61.2	61.2	66	49.7	3	6	112	0.00	29.549 
02:00	61.2	61.2	61.2	65	49.3	2	9	112	0.00	29.545 
02:05	61.2	61.2	61.2	65	49.3	3	10	112	0.00	29.545 
02:10	61.0	61.0	61.0	66	49.6	2	6	112	0.00	29.545 
02:15	60.9	60.9	60.9	66	49.5	2	6	90	0.00	29.522 
02:20	60.9	60.9	60.9	66	49.5	2	7	112	0.00	29.522 
02:25	60.7	60.7	60.7	66	49.3	2	6	90	0.00	29.522 
02:30	60.7	60.7	60.7	66	49.3	3	5	90	0.00	29.528 
02:35	60.7	60.7	60.7	66	49.3	2	5	112	0.00	29.528 
02:40	60.7	60.7	60.7	66	49.3	2	7	90	0.00	29.528 
02:45	60.7	60.7	60.7	66	49.3	3	9	90	0.00	29.528 
02:50	60.7	60.7	60.7	66	49.3	3	9	90	0.00	29.528 
02:55	60.7	60.7	60.7	66	49.3	3	7	90	0.00	29.528 
03:00	60.7	60.7	60.7	65	48.9	3	7	90	0.00	29.515 
03:05	60.7	60.7	60.7	66	49.3	2	9	112	0.00	29.515 
03:10	60.7	60.7	60.7	66	49.3	2	9	90	0.00	29.515 
03:15	60.5	60.5	60.5	66	49.1	1	5	112	0.00	29.502 
03:20	60.5	60.5	60.5	66	49.1	3	9	90	0.00	29.502 
03:25	60.5	60.5	60.5	66	49.1	2	5	112	0.00	29.502 
03:30	60.5	60.5	60.5	66	49.1	2	4	112	0.00	29.498 
03:35	60.5	60.5	60.5	67	49.5	2	8	112	0.00	29.498 
03:40	60.5	60.5	60.5	67	49.5	3	6	90	0.00	29.498 
03:45	60.5	60.5	60.5	67	49.5	2	7	90	0.00	29.482 
03:50	60.5	60.5	60.5	67	49.5	2	7	135	0.00	29.482 
03:55	60.5	60.5	60.5	67	49.5	2	8	112	0.00	29.482 
04:00	60.5	60.5	60.5	67	49.5	2	6	135	0.00	29.476 
04:05	60.5	60.5	60.5	67	49.5	2	6	112	0.00	29.476 
04:10	60.5	60.5	60.5	67	49.5	2	6	112	0.00	29.476 
04:15	60.5	60.5	60.5	67	49.5	2	5	112	0.00	29.462 
04:20	60.5	60.5	60.5	67	49.5	2	7	90	0.00	29.462 
04:25	60.5	60.5	60.5	68	49.9	2	5	90	0.00	29.462 
04:30	60.5	60.5	60.5	68	49.9	2	6	90	0.00	29.449 
04:35	60.7	60.7	60.7	68	50.1	2	10	135	0.00	29.449 
04:40	60.7	60.7	60.7	69	50.5	2	10	90	0.00	29.449 
04:45	60.9	60.9	60.9	69	50.7	2	7	112	0.00	29.438 
04:50	60.9	60.9	60.9	69	50.7	2	5	112	0.00	29.438 
04:55	61.0	61.0	61.0	69	50.8	2	6	90	0.00	29.438 
05:00	61.2	61.2	61.2	69	50.9	3	7	90	0.00	29.433 
05:05	61.3	61.3	61.3	69	51.0	3	9	90	0.00	29.433 
05:10	61.3	61.3	61.3	70	51.4	3	6	90	0.00	29.433 
05:15	61.3	61.3	61.3	72	52.2	3	6	90	0.00	29.426 
05:20	61.0	61.0	61.0	73	52.3	2	5	112	0.01	29.426 
05:25	61.0	61.0	61.0	72	51.9	3	7	90	0.00	29.426 
05:30	61.2	61.2	61.2	73	52.5	1	4	112	0.00	29.419 
05:35	61.2	61.2	61.2	72	52.1	3	7	90	0.00	29.419 
05:40	61.3	61.3	61.3	72	52.2	2	6	90	0.00	29.419 
05:45	61.5	61.5	61.5	73	52.8	3	11	90	0.00	29.406 
05:50	61.6	61.6	61.6	72	52.5	3	9	90	0.00	29.406 
05:55	61.8	61.8	61.8	73	53.0	3	10	90	0.00	29.406 
06:00	61.8	61.8	61.8	72	52.7	3	10	90	0.00	29.405 
06:05	62.0	62.0	62.0	73	53.2	4	10	90	0.00	29.405 
06:10	61.8	61.8	61.8	76	54.1	2	9	90	0.01	29.405 
06:15	61.0	61.0	61.0	79	54.4	3	18	248	0.04	29.452 
06:20	59.6	59.6	59.6	82	54.1	3	16	248	0.00	29.452 
06:25	58.7	58.7	58.7	84	53.9	1	7	202	0.00	29.452 
06:30	58.1	58.1	58.1	86	53.9	2	6	270	0.00	29.455 
06:35	57.6	57.6	57.6	87	53.8	2	6	248	0.00	29.455 
06:40	57.2	57.2	57.2	88	53.7	1	5	248	0.00	29.455 
06:45	56.9	56.9	56.9	88	53.4	1	4	248	0.00	29.448 
06:50	56.7	56.7	56.7	89	53.5	0	2	248	0.00	29.448 
06:55	56.6	56.6	56.6	89	53.4	0	2	248	0.00	29.448 
07:00	56.5	56.5	56.5	90	53.6	0	3	248	0.00	29.439 
07:05	56.5	56.5	56.5	90	53.6	0	2	248	0.00	29.439 
07:10	56.3	56.3	56.3	90	53.4	0	1	248	0.00	29.439 
07:15	56.2	56.2	56.2	90	53.3	0	1	248	0.00	29.438 
07:20	56.2	56.2	56.2	90	53.3	0	1	248	0.00	29.438 
07:25	56.0	56.0	56.0	90	53.1	0	1	248	0.00	29.438 
07:30	56.0	56.0	56.0	91	53.4	1	2	248	0.00	29.421 
07:35	56.0	56.0	56.0	91	53.4	1	4	90	0.00	29.421 
07:40	56.0	56.0	56.0	91	53.4	1	4	112	0.00	29.421 
07:45	56.0	56.0	56.0	90	53.1	1	5	112	0.00	29.421 
07:50	56.0	56.0	56.0	90	53.1	1	5	112	0.00	29.421 
07:55	56.2	56.2	56.2	90	53.3	1	3	112	0.00	29.421 
08:00	56.2	56.2	56.2	90	53.3	0	2	112	0.00	29.421 
08:05	56.2	56.2	56.2	90	53.3	1	5	112	0.01	29.421 
08:10	56.3	56.3	56.3	90	53.4	1	4	112	0.00	29.421 
08:15	56.3	56.3	56.3	90	53.4	2	5	90	0.00	29.405 
08:20	56.5	56.5	56.5	90	53.6	2	5	90	0.01	29.405 
08:25	56.5	56.5	56.5	90	53.6	2	4	90	0.00	29.405 
08:30	56.5	56.5	56.5	90	53.6	2	5	112	0.00	29.404 
08:35	56.5	56.5	56.5	90	53.6	2	6	90	0.01	29.404 
08:40	56.5	56.5	56.5	90	53.6	3	9	112	0.00	29.404 
08:45	56.5	56.5	56.5	90	53.6	2	6	112	0.01	29.369 
08:50	56.3	56.3	56.3	90	53.4	2	5	112	0.00	29.369 
08:55	56.3	56.3	56.3	90	53.4	2	10	90	0.00	29.369 
09:00	56.2	56.2	56.2	90	53.3	2	6	90	0.00	29.345 
09:05	56.2	56.2	56.2	90	53.3	1	5	112	0.01	29.345 
09:10	56.0	56.0	56.0	90	53.1	2	4	90	0.00	29.345 
09:15	56.0	56.0	56.0	90	53.1	2	5	90	0.01	29.348 
09:20	56.0	56.0	56.0	90	53.1	2	5	112	0.00	29.348 
09:25	56.0	56.0	56.0	91	53.4	2	4	90	0.01	29.348 
09:30	56.0	56.0	56.0	91	53.4	3	9	90	0.01	29.360 
09:35	56.0	56.0	56.0	91	53.4	2	6	112	0.00	29.360 
09:40	55.9	55.9	55.9	91	53.3	2	4	90	0.01	29.360 
09:45	55.9	55.9	55.9	91	53.3	1	4	90	0.01	29.346 
09:50	55.9	55.9	55.9	91	53.3	2	4	112	0.00	29.346 
09:55	55.9	55.9	55.9	91	53.3	1	4	135	0.00	29.346 
10:00	55.9	55.9	55.9	91	53.3	1	5	112	0.00	29.311 
10:05	55.9	55.9	55.9	91	53.3	2	5	90	0.00	29.311 
10:10	55.9	55.9	55.9	91	53.3	1	5	112	0.00	29.311 
10:15	55.9	55.9	55.9	91	53.3	2	6	90	0.00	29.334 
10:20	56.0	56.0	56.0	91	53.4	2	8	90	0.00	29.334 
10:25	56.0	56.0	56.0	90	53.1	2	6	90	0.00	29.334 
10:30	56.2	56.2	56.2	90	53.3	1	7	90	0.00	29.331 
10:35	56.3	56.3	56.3	89	53.1	1	4	68	0.00	29.331 
10:40	56.3	56.3	56.3	89	53.1	2	11	112	0.00	29.331 
10:45	56.3	56.3	56.3	89	53.1	2	5	270	0.00	29.343 
10:50	56.2	56.2	56.2	89	53.0	2	9	90	0.00	29.343 
10:55	56.3	56.3	56.3	89	53.1	1	4	338	0.00	29.343 
11:00	56.5	56.5	56.5	89	53.3	1	4	270	0.00	29.334 
11:05	56.7	56.7	56.7	89	53.5	1	3	270	0.00	29.334 
11:10	57.2	57.2	57.2	89	54.0	1	10	90	0.00	29.334 
11:15	57.5	57.5	57.5	88	54.0	1	5	270	0.00	29.317 
11:20	57.8	57.8	57.8	88	54.3	1	3	22	0.00	29.317 
11:25	57.8	57.8	57.8	85	53.3	2	9	270	0.00	29.317 
11:30	57.2	57.2	57.2	84	52.4	2	7	248	0.00	29.311 
11:35	56.2	56.2	56.2	81	50.4	3	7	248	0.00	29.311 
11:40	55.7	55.7	55.7	82	50.3	2	6	248	0.00	29.311 
11:45	55.1	55.1	55.1	80	49.0	5	15	248	0.00	29.326 
11:50	54.4	54.4	54.4	77	47.3	5	12	248	0.00	29.326 
11:55	53.8	53.8	53.8	77	46.8	5	12	248	0.00	29.326 
12:00	53.3	53.3	53.3	77	46.3	3	12	225	0.00	29.329 
12:05	52.9	52.9	52.9	77	45.9	2	7	248	0.00	29.329 
12:10	52.8	52.8	52.8	77	45.8	4	7	248	0.00	29.329 
12:15	52.8	52.8	52.8	77	45.8	4	12	248	0.00	29.329 
12:20	52.8	52.8	52.8	77	45.8	3	8	248	0.00	29.329 
12:25	52.8	52.8	52.8	79	46.5	2	7	248	0.00	29.329 
12:30	52.6	52.6	52.6	82	47.3	2	5	248	0.00	29.331 
12:35	51.9	51.9	51.9	84	47.2	2	6	248	0.00	29.331 
12:40	51.6	51.6	51.6	86	47.5	1	3	292	0.00	29.331 
12:45	51.3	51.3	51.3	87	47.6	2	7	248	0.00	29.318 
12:50	51.1	51.1	51.1	87	47.4	2	8	248	0.00	29.318 
12:55	51.1	51.1	51.1	87	47.4	1	3	248	0.00	29.318 
13:00	51.1	51.1	51.1	87	47.4	1	5	248	0.00	29.317 
13:05	51.3	51.3	51.3	87	47.6	1	3	248	0.00	29.317 
13:10	51.3	51.3	51.3	86	47.3	1	4	248	0.00	29.317 
13:15	51.4	51.4	51.4	85	47.0	2	7	248	0.00	29.308 
13:20	51.6	51.6	51.6	84	46.9	1	4	248	0.00	29.308 
13:25	51.9	51.9	51.9	83	46.9	1	4	248	0.00	29.308 
13:30	52.0	52.0	52.0	82	46.7	0	3	248	0.00	29.303 
13:35	52.3	52.3	52.3	81	46.6	1	3	248	0.00	29.303 
13:40	52.5	52.5	52.5	81	46.8	1	4	248	0.00	29.303 
13:45	52.5	52.5	52.5	81	46.8	0	2	248	0.00	29.299 
13:50	52.5	52.5	52.5	79	46.2	2	5	225	0.00	29.299 
13:55	52.5	52.5	52.5	78	45.8	3	7	248	0.00	29.299 
14:00	52.6	52.6	52.6	79	46.3	1	4	248	0.00	29.294 
14:05	52.8	52.8	52.8	78	46.1	2	9	248	0.00	29.294 
14:10	53.1	53.1	53.1	77	46.1	1	5	270	0.00	29.294 
14:15	53.1	53.1	53.1	77	46.1	2	7	248	0.00	29.289 
14:20	53.1	53.1	53.1	76	45.7	2	5	248	0.00	29.289 
14:25	53.1	53.1	53.1	77	46.1	2	6	248	0.00	29.289 
14:30	52.9	52.9	52.9	77	45.9	1	4	248	0.00	29.290 
14:35	52.9	52.9	52.9	77	45.9	1	5	248	0.00	29.290 
14:40	52.8	52.8	52.8	77	45.8	1	9	225	0.00	29.290 
14:45	52.8	52.8	52.8	77	45.8	1	5	248	0.00	29.293 
14:50	52.8	52.8	52.8	77	45.8	1	4	248	0.00	29.293 
14:55	52.9	52.9	52.9	75	45.2	2	4	248	0.00	29.293 
15:00	53.1	53.1	53.1	74	45.0	2	7	248	0.00	29.294 
15:05	53.1	53.1	53.1	76	45.7	1	5	225	0.00	29.294 
15:10	52.8	52.8	52.8	78	46.1	2	6	248	0.00	29.294 
15:15	52.5	52.5	52.5	78	45.8	2	9	248	0.00	29.295 
15:20	52.3	52.3	52.3	79	46.0	2	7	248	0.00	29.295 
15:25	52.3	52.3	52.3	80	46.3	1	4	270	0.00	29.295 
15:30	52.3	52.3	52.3	80	46.3	2	5	248	0.00	29.304 
15:35	52.2	52.2	52.2	80	46.2	1	4	292	0.00	29.304 
15:40	52.0	52.0	52.0	80	46.0	1	5	248	0.00	29.304 
15:45	52.0	52.0	52.0	81	46.4	1	4	248	0.00	29.304 
15:50	52.0	52.0	52.0	80	46.0	2	9	248	0.00	29.304 
15:55	52.0	52.0	52.0	80	46.0	2	6	248	0.00	29.304 
16:00	51.9	51.9	51.9	81	46.3	2	9	248	0.02	29.329 
16:05	50.5	50.5	50.5	84	45.8	4	14	248	0.04	29.329 
16:10	49.1	49.1	49.1	85	44.8	2	6	248	0.01	29.329 
16:15	48.3	48.3	48.3	87	44.6	1	5	248	0.00	29.342 
16:20	47.7	47.7	47.7	88	44.3	2	7	248	0.00	29.342 
16:25	47.3	47.3	47.3	88	43.9	2	7	248	0.01	29.342 
16:30	47.0	47.0	47.0	88	43.6	3	6	248	0.00	29.354 
16:35	46.7	46.7	46.7	88	43.3	3	6	248	0.01	29.354 
16:40	46.4	46.4	46.4	89	43.3	2	6	248	0.00	29.354 
16:45	46.4	46.4	46.4	89	43.3	1	4	225	0.00	29.359 
16:50	46.2	46.2	46.2	89	43.1	0	3	225	0.00	29.359 
16:55	46.2	46.2	46.2	89	43.1	1	5	248	0.00	29.359 
17:00	46.2	46.2	46.2	89	43.1	0	2	248	0.00	29.369 
17:05	46.2	46.2	46.2	88	42.8	1	4	248	0.00	29.369 
17:10	46.2	46.2	46.2	88	42.8	0	1	248	0.00	29.369 
17:15	46.2	46.2	46.2	88	42.8	1	3	248	0.00	29.373 
17:20	46.2	46.2	46.2	88	42.8	1	9	248	0.00	29.373 
17:25	46.4	46.4	46.4	88	43.0	1	3	225	0.00	29.373 
17:30	46.4	46.4	46.4	87	42.7	1	5	270	0.00	29.376 
17:35	46.4	46.4	46.4	87	42.7	1	3	248	0.00	29.376 
17:40	46.4	46.4	46.4	87	42.7	0	2	248	0.00	29.376 
17:45	46.4	46.4	46.4	87	42.7	0	1	248	0.00	29.377 
17:50	46.4	46.4	46.4	87	42.7	0	2	248	0.00	29.377 
17:55	46.5	46.5	46.5	87	42.8	0	3	248	0.00	29.377 
18:00	46.5	46.5	46.5	86	42.5	0	4	248	0.00	29.384 
18:05	46.5	46.5	46.5	86	42.5	0	1	248	0.00	29.384 
18:10	46.7	46.7	46.7	86	42.7	1	4	248	0.00	29.384 
18:15	46.8	46.8	46.8	85	42.5	1	3	248	0.00	29.389 
18:20	46.8	46.8	46.8	85	42.5	1	4	248	0.00	29.389 
18:25	47.0	47.0	47.0	84	42.4	0	2	248	0.00	29.389 
18:30	47.0	47.0	47.0	84	42.4	1	3	248	0.00	29.403 
18:35	47.0	47.0	47.0	84	42.4	0	3	248	0.00	29.403 
18:40	47.1	47.1	47.1	84	42.5	1	4	248	0.00	29.403 
18:45	47.1	47.1	47.1	83	42.2	1	4	248	0.00	29.407 
18:50	47.3	47.3	47.3	83	42.4	1	4	248	0.00	29.407 
18:55	47.3	47.3	47.3	83	42.4	1	4	248	0.00	29.407 
19:00	47.4	47.4	47.4	82	42.2	1	4	248	0.00	29.412 
19:05	47.4	47.4	47.4	82	42.2	1	6	248	0.00	29.412 
19:10	47.4	47.4	47.4	82	42.2	0	2	248	0.00	29.412 
19:15	47.4	47.4	47.4	82	42.2	1	4	248	0.00	29.420 
19:20	47.4	47.4	47.4	82	42.2	1	4	248	0.00	29.420 
19:25	47.4	47.4	47.4	82	42.2	1	5	248	0.00	29.420 
19:30	47.4	47.4	47.4	82	42.2	1	5	248	0.00	29.432 
19:35	47.4	47.4	47.4	82	42.2	1	3	248	0.00	29.432 
19:40	47.4	47.4	47.4	82	42.2	0	2	248	0.00	29.432 
19:45	47.4	47.4	47.4	82	42.2	1	3	248	0.00	29.451 
19:50	47.6	47.6	47.6	81	42.1	1	4	248	0.00	29.451 
19:55	47.6	47.6	47.6	80	41.7	2	5	248	0.00	29.451 
20:00	47.6	47.6	47.6	78	41.1	3	7	248	0.00	29.454 
20:05	47.6	47.6	47.6	78	41.1	2	6	248	0.00	29.454 
20:10	47.6	47.6	47.6	77	40.8	2	5	248	0.00	29.454 
20:15	47.6	47.6	47.6	77	40.8	2	6	248	0.00	29.457 
20:20	47.6	47.6	47.6	77	40.8	2	7	248	0.00	29.457 
20:25	47.4	47.4	47.4	77	40.6	3	6	248	0.00	29.457 
20:30	47.4	47.4	47.4	77	40.6	2	7	248	0.00	29.465 
20:35	47.3	47.3	47.3	77	40.5	1	4	248	0.00	29.465 
20:40	47.3	47.3	47.3	77	40.5	2	5	248	0.00	29.465 
20:45	47.3	47.3	47.3	77	40.5	2	4	248	0.00	29.467 
20:50	47.1	47.1	47.1	78	40.6	2	5	248	0.00	29.467 
20:55	47.0	47.0	47.0	78	40.5	1	5	248	0.00	29.467 
21:00	46.8	46.8	46.8	78	40.3	1	5	270	0.00	29.468 
21:05	46.7	46.7	46.7	78	40.2	1	3	270	0.00	29.468 
21:10	46.5	46.5	46.5	79	40.3	1	2	270	0.00	29.468 
21:15	46.4	46.4	46.4	79	40.2	1	3	270	0.00	29.469 
21:20	46.2	46.2	46.2	79	40.1	1	3	270	0.00	29.469 
21:25	46.1	46.1	46.1	80	40.3	1	4	270	0.00	29.469 
21:30	45.8	45.8	45.8	80	40.0	1	4	270	0.00	29.475 
21:35	45.8	45.8	45.8	80	40.0	1	3	270	0.00	29.475 
21:40	45.8	45.8	45.8	79	39.7	1	4	270	0.00	29.475 
21:45	45.7	45.7	45.7	79	39.6	1	2	270	0.00	29.483 
21:50	45.8	45.8	45.8	79	39.7	1	3	270	0.00	29.483 
21:55	45.8	45.8	45.8	80	40.0	1	4	270	0.00	29.483 
22:00	46.0	46.0	46.0	80	40.2	1	4	248	0.00	29.487 
22:05	46.1	46.1	46.1	80	40.3	0	3	248	0.00	29.487 
22:10	46.1	46.1	46.1	79	40.0	1	6	248	0.00	29.487 
22:15	46.1	46.1	46.1	79	40.0	1	5	270	0.00	29.499 
22:20	46.0	46.0	46.0	80	40.2	2	7	248	0.00	29.499 
22:25	45.5	45.5	45.5	81	40.0	3	11	248	0.00	29.499 
22:30	45.1	45.1	45.1	82	39.9	2	5	248	0.00	29.507 
22:35	44.8	44.8	44.8	83	40.0	2	6	248	0.00	29.507 
22:40	44.6	44.6	44.6	84	40.1	2	7	248	0.00	29.507 
22:45	44.6	44.6	44.6	84	40.1	1	5	248	0.00	29.513 
22:50	44.5	44.5	44.5	84	40.0	1	4	248	0.00	29.513 
22:55	44.3	44.3	44.3	83	39.5	2	4	248	0.00	29.513 
23:00	44.3	44.3	44.3	83	39.5	1	4	270	0.00	29.519 
23:05	44.3	44.3	44.3	83	39.5	1	4	248	0.00	29.519 
23:10	44.3	44.3	44.3	83	39.5	1	5	248	0.00	29.519 
23:15	44.3	44.3	44.3	83	39.5	1	4	248	0.00	29.525 
23:20	44.5	44.5	44.5	83	39.7	0	2	248	0.00	29.525 
23:25	44.5	44.5	44.5	83	39.7	1	3	248	0.00	29.525 
23:30	44.5	44.5	44.5	83	39.7	1	3	248	0.00	29.533 
23:35	44.5	44.5	44.5	83	39.7	1	4	248	0.00	29.533 
23:40	44.6	44.6	44.6	83	39.8	1	3	248	0.00	29.533 
23:45	44.6	44.6	44.6	83	39.8	0	3	248	0.00	29.540 
23:50	44.6	44.6	44.6	83	39.8	0	2	248	0.00	29.540 
23:55	44.6	44.6	44.6	83	39.8	0	2	248	0.00	29.540 

CoCoRaHS
IN-AL-39
A2 Web Hosting
Creative Commons License
GoDaddy
search engine by freefind advanced

loaded 2018-11-15 16:52:05 • last modified 2010-11-18 10:43:29
Privacy PolicyDisclaimer
• wx.awcolley.com is powered by PmWiki v.2002016 •
• all content (unless otherwise noted) © 2018 A W Colley